Flight Track Log - Related Links

Times and Time Zones

All times are in EDT time to prevent confusion due to time zone crossing. See the EGF3994 flight status page for this flight to view local times or setup timezone preferences in your user account.


Time Position Orientation Groundspeed Altitude Reporting Facility
EDT Latitude Longitude Course Direction KTS MPH feet Rate Location/Type
Mon 07:01:26 PM 41.9333 -87.9000 90° East 181 208 1,900  Level Chicago TRACON
Mon 07:02:26 PM 41.8833 -87.8500 143° Southeast 239 275 4,100 1,600 Climbing Chicago TRACON
Mon 07:03:00 PM 41.9603 -87.4698 98° East  Level FlightAware Approximate
Mon 07:03:26 PM 41.8500 -87.7833 124° Southeast 269 310 5,100  Level Chicago TRACON
Mon 07:04:00 PM 41.9472 -87.3273 95° East  Level FlightAware Approximate
Mon 07:05:00 PM 41.9370 -87.1845 95° East  Level FlightAware Approximate
Mon 07:05:34 PM 41.8683 -87.5778 83° East 303 349 10,200  Level Chicago Center
Mon 07:06:00 PM 41.9333 -87.0412 90° East  Level FlightAware Approximate
Mon 07:06:36 PM 41.8936 -87.4608 74° East 328 377 11,700  Level Chicago Center
Mon 07:07:38 PM 41.9086 -87.3306 81° East 350 403 13,400 1,935 Climbing Chicago Center
Mon 07:08:40 PM 41.9264 -87.2033 79° East 347 399 15,700 2,274 Climbing Chicago Center
Mon 07:09:42 PM 41.9600 -87.0611 72° East 335 386 18,100 1,935 Climbing Chicago Center
Mon 07:10:44 PM 41.9822 -86.9358 77° East 345 397 19,700 1,258 Climbing Chicago Center
Mon 07:11:46 PM 41.9586 -86.8042 104° East 359 413 20,700 1,065 Climbing Chicago Center
Mon 07:12:48 PM 41.9339 -86.6550 103° East 392 451 21,900 1,073 Climbing Chicago Center
Mon 07:13:49 PM 41.9089 -86.5019 102° East 416 479 22,900 537 Climbing Chicago Center
Mon 07:14:51 PM 41.8833 -86.3383 102° East 444 511 23,000 48 Climbing Chicago Center
Mon 07:15:53 PM 41.8550 -86.1644 102° East 474 545 23,000  Level Chicago Center
Mon 07:16:55 PM 41.8050 -86.0056 113° Southeast 468 539 23,000  Level Chicago Center
Mon 07:17:57 PM 41.6986 -85.8625 135° Southeast 453 521 23,000  Level Chicago Center
Mon 07:18:59 PM 41.6092 -85.7458 136° Southeast 454 522 23,000  Level Chicago Center
Mon 07:20:01 PM 41.5211 -85.6278 135° Southeast 457 526 23,000 -384 Level Chicago Center
Mon 07:21:04 PM 41.4325 -85.5094 135° Southeast 459 528 22,200 -1,016 Descending Chicago Center
Mon 07:22:05 PM 41.3239 -85.3683 136° Southeast 456 525 20,900 -1,131 Descending Chicago Center
Mon 07:23:06 PM 41.2372 -85.2556 136° Southeast 451 519 19,900 -1,024 Descending Chicago Center
Mon 07:24:08 PM 41.1506 -85.1433 136° Southeast 442 509 18,800 -1,065 Descending Chicago Center
Mon 07:25:10 PM 41.0647 -85.0317 136° Southeast 438 504 17,700 -1,065 Descending Chicago Center
Mon 07:26:12 PM 40.9786 -84.9231 136° Southeast 432 497 16,600 -1,065 Descending Chicago Center
Mon 07:27:14 PM 40.8986 -84.8175 135° Southeast 418 481 15,500 -726 Descending Chicago Center
Mon 07:28:16 PM 40.8036 -84.6931 135° Southeast 407 468 15,100 -390 Descending Chicago Center
Mon 07:29:17 PM 40.7208 -84.5853 135° Southeast 411 473 14,700 -1,024 Descending Chicago Center
Mon 07:30:19 PM 40.6417 -84.4850 136° Southeast 407 468 13,000 -1,747 Descending Chicago Center
Mon 07:30:36 PM 40.6192 -84.4597 140° Southeast 387 445 12,400 -1,735 Descending Indianapolis Center
Mon 07:31:42 PM 40.5272 -84.3756 145° Southeast 331 381 10,600 -1,606 Descending Indianapolis Center
Mon 07:32:43 PM 40.4536 -84.3547 168° South 254 292 9,000 -1,397 Descending Indianapolis Center
Mon 07:33:38 PM 40.3861 -84.3344 167° South 259 298 7,900 -1,114 Descending Indianapolis Center
Mon 07:33:53 PM 40.3744 -84.3322 172° South 275 316 7,700 -1,013 Descending Indianapolis Center
Mon 07:34:55 PM 40.2997 -84.3083 166° South 274 315 6,600 -1,358 Descending Indianapolis Center
Mon 07:35:39 PM 40.2406 -84.2903 167° South 265 305 5,300 -1,548 Descending Indianapolis Center
Mon 07:35:57 PM 40.2281 -84.2858 165° South 269 310 5,000 -1,367 Descending Indianapolis Center
Mon 07:36:58 PM 40.1606 -84.2658 167° South 259 298 3,500 -1,096 Descending Indianapolis Center
Mon 07:37:41 PM 40.1097 -84.2508 167° South 226 260 3,100 -484 Descending Indianapolis Center
Mon 07:38:00 PM 40.0894 -84.2444 166° South 239 275 3,000  Descending Indianapolis Center
Mon 07:38:35 PM 40.0589 -84.2303 160° South 211 243 3,100  Climbing Indianapolis Center
Mon 07:39:02 PM 40.0339 -84.2211 164° South 223 257 3,000 -448 Descending Indianapolis Center
Mon 07:39:42 PM 40.0014 -84.2144 171° South 171 197 2,600 -600 Descending Indianapolis Center

Login

Don't have an account? Register now (free) for customized features, flight alerts, and more!